Time;durP1;ratioP1;P1;durP2;ratioP2;P2;SDS_P1;SDS_P2;PMS_P1;PMS_P2;Temp;Humidity;BMP_temperature;BMP_pressure;BME280_temperature;BME280_humidity;BME280_pressure;Samples;Min_cycle;Max_cycle;Signal;HPM_P1;HPM_P2
2023/05/28 00:00:21;;;;;;;16.30;7.90;;;19.80;99.90;;;;;;5034330;28;20044;-74
2023/05/28 00:02:47;;;;;;;19.10;8.60;;;19.70;99.90;;;;;;5034778;28;20021;-75
2023/05/28 00:05:13;;;;;;;15.90;8.38;;;19.60;99.90;;;;;;5034630;28;20029;-75
2023/05/28 00:07:41;;;;;;;19.15;8.25;;;19.50;99.90;;;;;;5034809;28;20121;-75
2023/05/28 00:10:08;;;;;;;18.95;8.60;;;19.60;99.90;;;;;;5034386;28;20048;-74
2023/05/28 00:12:34;;;;;;;15.45;8.10;;;19.60;99.90;;;;;;5034717;28;20029;-75
2023/05/28 00:15:00;;;;;;;12.88;7.80;;;19.60;99.90;;;;;;5034451;28;20502;-75
2023/05/28 00:17:26;;;;;;;13.25;7.72;;;19.70;99.90;;;;;;5049174;28;20052;-75
2023/05/28 00:19:52;;;;;;;19.13;8.50;;;19.70;99.90;;;;;;5034618;28;20064;-75
2023/05/28 00:22:18;;;;;;;18.65;8.52;;;19.70;99.90;;;;;;5033970;28;20029;-75
2023/05/28 00:24:44;;;;;;;16.80;8.95;;;19.70;99.90;;;;;;5034454;28;20064;-74
2023/05/28 00:27:10;;;;;;;16.67;8.63;;;19.60;99.90;;;;;;5033070;28;20030;-75
2023/05/28 00:29:37;;;;;;;16.73;7.68;;;19.50;99.90;;;;;;5034382;28;20502;-75
2023/05/28 00:32:03;;;;;;;21.33;8.60;;;19.40;99.90;;;;;;5033813;28;20034;-75
2023/05/28 00:34:29;;;;;;;17.65;8.40;;;19.40;99.90;;;;;;5034352;28;20075;-75
2023/05/28 00:36:55;;;;;;;17.50;8.88;;;19.50;99.90;;;;;;5033563;28;20029;-74
2023/05/28 00:39:21;;;;;;;17.27;9.00;;;19.50;99.90;;;;;;5034342;28;20390;-75
2023/05/28 00:41:47;;;;;;;16.25;9.18;;;19.50;99.90;;;;;;5049382;28;20030;-75
2023/05/28 00:44:13;;;;;;;19.30;8.68;;;19.40;99.90;;;;;;5034158;28;20049;-75
2023/05/28 00:46:41;;;;;;;11.65;8.60;;;19.40;99.90;;;;;;5033518;28;20042;-75
2023/05/28 00:49:07;;;;;;;19.65;9.02;;;19.30;99.90;;;;;;5052840;28;20040;-75
2023/05/28 00:51:33;;;;;;;17.73;8.77;;;19.30;99.90;;;;;;5039223;28;20033;-75
2023/05/28 00:53:59;;;;;;;14.93;8.23;;;19.30;99.90;;;;;;5034177;28;20028;-75
2023/05/28 00:56:26;;;;;;;19.48;9.60;;;19.30;99.90;;;;;;5033517;28;20025;-75
2023/05/28 00:58:52;;;;;;;17.30;9.02;;;19.40;99.90;;;;;;5032713;28;20033;-75
2023/05/28 01:01:18;;;;;;;20.38;8.75;;;19.40;99.90;;;;;;5031887;28;20037;-75
2023/05/28 01:03:44;;;;;;;18.67;9.50;;;19.30;99.90;;;;;;5032553;28;20475;-75
2023/05/28 01:06:12;;;;;;;14.38;8.38;;;19.20;99.90;;;;;;5032224;28;20030;-75
2023/05/28 01:08:38;;;;;;;17.60;8.77;;;19.20;99.90;;;;;;5032782;28;20493;-75
2023/05/28 01:11:06;;;;;;;18.10;9.40;;;19.10;99.90;;;;;;5033517;28;20036;-75
2023/05/28 01:13:32;;;;;;;13.50;9.20;;;19.10;99.90;;;;;;5032104;28;20025;-75
2023/05/28 01:15:58;;;;;;;20.02;9.68;;;19.10;99.90;;;;;;5048240;28;20402;-75
2023/05/28 01:18:25;;;;;;;19.17;9.10;;;19.10;99.90;;;;;;5033539;28;20026;-75
2023/05/28 01:20:51;;;;;;;18.35;9.30;;;18.90;99.90;;;;;;5031135;28;20502;-75
2023/05/28 01:23:20;;;;;;;19.10;9.60;;;18.90;99.90;;;;;;5032285;28;20082;-75
2023/05/28 01:25:50;;;;;;;19.95;9.32;;;18.90;99.90;;;;;;5033070;28;20056;-75
2023/05/28 01:28:17;;;;;;;21.92;8.88;;;19.00;99.90;;;;;;5032416;28;20030;-75
2023/05/28 01:30:46;;;;;;;16.23;8.43;;;19.00;99.90;;;;;;5032530;28;20044;-75
2023/05/28 01:33:12;;;;;;;20.23;8.88;;;18.90;99.90;;;;;;5032248;28;20029;-75
2023/05/28 01:35:39;;;;;;;15.63;8.90;;;18.90;99.90;;;;;;5015115;28;20029;-75
2023/05/28 01:38:05;;;;;;;14.77;9.23;;;19.00;99.90;;;;;;5031996;28;20355;-75
2023/05/28 01:40:31;;;;;;;17.88;9.48;;;19.00;99.90;;;;;;5015244;28;20044;-75
2023/05/28 01:42:57;;;;;;;24.23;9.45;;;18.90;99.90;;;;;;5032023;28;20029;-75
2023/05/28 01:45:24;;;;;;;17.67;9.05;;;19.00;99.90;;;;;;5031271;28;20406;-75
2023/05/28 01:47:50;;;;;;;21.55;9.93;;;18.90;99.90;;;;;;5041635;28;20053;-75
2023/05/28 01:50:16;;;;;;;17.88;8.70;;;19.00;99.90;;;;;;5066026;28;20040;-75
2023/05/28 01:52:42;;;;;;;16.73;8.57;;;19.00;99.90;;;;;;5015439;28;20041;-75
2023/05/28 01:55:13;;;;;;;23.27;9.40;;;19.10;99.90;;;;;;5031609;28;20029;-75
2023/05/28 01:57:39;;;;;;;19.98;9.05;;;19.10;99.90;;;;;;5011968;28;20033;-74
2023/05/28 02:00:06;;;;;;;15.50;8.13;;;19.10;99.90;;;;;;5026779;28;20383;-75
2023/05/28 02:02:34;;;;;;;11.55;8.07;;;18.90;99.90;;;;;;5028179;28;20152;-75
2023/05/28 02:05:00;;;;;;;20.23;9.35;;;18.80;99.90;;;;;;5026428;28;20025;-76
2023/05/28 02:07:26;;;;;;;21.35;8.82;;;18.80;99.90;;;;;;5050630;28;20022;-75
2023/05/28 02:09:52;;;;;;;18.85;8.80;;;18.70;99.90;;;;;;5028561;28;20537;-75
2023/05/28 02:12:18;;;;;;;17.08;9.23;;;18.80;99.90;;;;;;5060172;28;20045;-75
2023/05/28 02:14:44;;;;;;;15.48;9.23;;;18.60;99.90;;;;;;5036379;28;20029;-75
2023/05/28 02:17:12;;;;;;;19.45;9.38;;;18.40;99.90;;;;;;5029099;28;20120;-75
2023/05/28 02:19:38;;;;;;;19.38;9.60;;;18.40;99.90;;;;;;5029406;28;20033;-76
2023/05/28 02:22:11;;;;;;;15.38;8.43;;;18.50;99.90;;;;;;5029395;28;20033;-75
2023/05/28 02:24:40;;;;;;;18.20;9.13;;;18.60;99.90;;;;;;5030730;28;20033;-75
2023/05/28 02:27:07;;;;;;;19.63;9.07;;;18.50;99.90;;;;;;5062395;28;20033;-75
2023/05/28 02:29:34;;;;;;;22.20;9.32;;;18.30;99.90;;;;;;5045863;28;20037;-75
2023/05/28 02:32:00;;;;;;;17.30;9.25;;;18.20;99.90;;;;;;5062017;28;20565;-76
2023/05/28 02:34:28;;;;;;;21.77;9.30;;;18.20;99.90;;;;;;5030562;28;20037;-75
2023/05/28 02:36:55;;;;;;;16.65;9.23;;;18.30;99.90;;;;;;5029871;28;20367;-75
2023/05/28 02:39:22;;;;;;;16.08;8.75;;;18.20;99.90;;;;;;5014896;28;20025;-75
2023/05/28 02:41:48;;;;;;;18.80;9.50;;;18.20;99.90;;;;;;5041233;28;20047;-75
2023/05/28 02:44:14;;;;;;;22.27;8.98;;;18.10;99.90;;;;;;5047458;28;20034;-75
2023/05/28 02:46:40;;;;;;;20.52;9.32;;;18.10;99.90;;;;;;5063837;28;20045;-75
2023/05/28 02:49:07;;;;;;;18.23;9.48;;;18.00;99.90;;;;;;5049970;28;20044;-75
2023/05/28 02:51:33;;;;;;;17.75;9.80;;;18.00;99.90;;;;;;5038985;28;20555;-75
2023/05/28 02:53:59;;;;;;;24.15;10.38;;;17.90;99.90;;;;;;5014557;28;20034;-75
2023/05/28 02:56:25;;;;;;;22.45;10.40;;;17.90;99.90;;;;;;5031790;28;20056;-74
2023/05/28 02:58:52;;;;;;;18.75;9.27;;;17.90;99.90;;;;;;5032077;28;20454;-74
2023/05/28 03:01:18;;;;;;;18.25;9.40;;;17.90;99.90;;;;;;5031305;28;20160;-75
2023/05/28 03:03:44;;;;;;;19.90;9.95;;;17.90;99.90;;;;;;5031650;28;20033;-75
2023/05/28 03:06:11;;;;;;;21.80;10.20;;;17.90;99.90;;;;;;5030536;28;20048;-75
2023/05/28 03:08:37;;;;;;;18.63;10.43;;;18.00;99.90;;;;;;5031911;28;20060;-75
2023/05/28 03:11:03;;;;;;;18.70;10.30;;;17.90;99.90;;;;;;5030410;28;20459;-74
2023/05/28 03:13:29;;;;;;;20.98;10.68;;;17.90;99.90;;;;;;5030447;28;20466;-75
2023/05/28 03:15:55;;;;;;;18.75;10.35;;;17.80;99.90;;;;;;5033982;28;20045;-75
2023/05/28 03:18:21;;;;;;;21.35;10.45;;;17.90;99.90;;;;;;5001376;28;20068;-76
2023/05/28 03:20:47;;;;;;;19.50;9.30;;;17.90;99.90;;;;;;5035438;28;20041;-75
2023/05/28 03:23:14;;;;;;;20.13;9.23;;;17.70;99.90;;;;;;5035667;28;20037;-75
2023/05/28 03:25:40;;;;;;;18.13;8.98;;;17.50;99.90;;;;;;5035255;28;20041;-75
2023/05/28 03:28:06;;;;;;;22.02;9.55;;;17.50;99.90;;;;;;5035581;28;20021;-75
2023/05/28 03:30:32;;;;;;;21.75;9.45;;;17.60;99.90;;;;;;5034864;28;20029;-75
2023/05/28 03:32:58;;;;;;;18.20;9.55;;;17.70;99.90;;;;;;5033962;28;20021;-75
2023/05/28 03:35:24;;;;;;;19.65;9.68;;;17.70;99.90;;;;;;5035213;28;20021;-75
2023/05/28 03:37:50;;;;;;;19.00;9.85;;;17.60;99.90;;;;;;5034117;28;20053;-75
2023/05/28 03:40:16;;;;;;;18.48;9.40;;;17.50;99.90;;;;;;5035172;28;20033;-75
2023/05/28 03:42:42;;;;;;;16.95;9.10;;;17.50;99.90;;;;;;5035414;28;20030;-75
2023/05/28 03:45:09;;;;;;;20.25;9.68;;;17.50;99.90;;;;;;5033154;28;20057;-74
2023/05/28 03:47:36;;;;;;;20.83;9.70;;;17.60;99.90;;;;;;5026205;28;20038;-75
2023/05/28 03:50:04;;;;;;;20.20;8.55;;;17.50;99.90;;;;;;5034120;28;20041;-75
2023/05/28 03:52:30;;;;;;;20.05;9.40;;;17.50;99.90;;;;;;5033772;28;20033;-75
2023/05/28 03:54:56;;;;;;;22.75;9.43;;;17.50;99.90;;;;;;5033906;28;20044;-75
2023/05/28 03:57:22;;;;;;;18.85;9.15;;;17.50;99.90;;;;;;5035096;28;20426;-74
2023/05/28 03:59:48;;;;;;;19.23;9.30;;;17.50;99.90;;;;;;5033135;28;20037;-75
2023/05/28 04:02:14;;;;;;;17.15;8.95;;;17.50;99.90;;;;;;5034036;28;20402;-75
2023/05/28 04:04:40;;;;;;;17.17;9.57;;;17.40;99.90;;;;;;5033927;28;20049;-75
2023/05/28 04:07:07;;;;;;;15.90;9.00;;;17.20;99.90;;;;;;5033300;28;20029;-75
2023/05/28 04:09:33;;;;;;;17.13;8.82;;;17.20;99.90;;;;;;5033683;28;20037;-75
2023/05/28 04:11:59;;;;;;;19.17;8.73;;;17.10;99.90;;;;;;5033489;28;20044;-75
2023/05/28 04:14:25;;;;;;;17.48;9.13;;;17.20;99.90;;;;;;5034246;28;20025;-74
2023/05/28 04:16:53;;;;;;;17.85;9.05;;;17.20;99.90;;;;;;5049495;28;20030;-75
2023/05/28 04:19:19;;;;;;;18.05;9.70;;;17.10;99.90;;;;;;5033704;28;20032;-75
2023/05/28 04:21:45;;;;;;;22.75;8.77;;;17.10;99.90;;;;;;5034281;28;20036;-75
2023/05/28 04:24:11;;;;;;;19.98;8.93;;;17.20;99.90;;;;;;5033468;28;20034;-75
2023/05/28 04:26:38;;;;;;;19.63;8.90;;;17.20;99.90;;;;;;5032791;28;20030;-75
2023/05/28 04:29:04;;;;;;;17.95;8.90;;;17.20;99.90;;;;;;5033082;28;20030;-75
2023/05/28 04:31:31;;;;;;;16.52;9.23;;;17.20;99.90;;;;;;5033712;28;20037;-75
2023/05/28 04:33:57;;;;;;;23.77;9.68;;;17.20;99.90;;;;;;5034448;28;20032;-75
2023/05/28 04:36:29;;;;;;;17.95;8.95;;;17.20;99.90;;;;;;5033853;28;20505;-75
2023/05/28 04:39:00;;;;;;;17.65;9.40;;;17.20;99.90;;;;;;5048893;28;20069;-76
2023/05/28 04:41:27;;;;;;;18.17;8.65;;;17.20;99.90;;;;;;5048550;28;20405;-74
2023/05/28 04:43:53;;;;;;;20.85;8.57;;;17.10;99.90;;;;;;5032732;28;20034;-75
2023/05/28 04:46:19;;;;;;;18.48;8.98;;;17.10;99.90;;;;;;5033537;28;20052;-75
2023/05/28 04:48:46;;;;;;;16.15;9.10;;;17.20;99.90;;;;;;5050431;28;20029;-76
2023/05/28 04:51:13;;;;;;;16.48;9.00;;;17.10;99.90;;;;;;5044094;28;20034;-75
2023/05/28 04:53:39;;;;;;;19.33;8.50;;;17.00;99.90;;;;;;5033076;28;20029;-75
2023/05/28 04:56:05;;;;;;;17.08;9.05;;;17.00;99.90;;;;;;5032558;28;20040;-75
2023/05/28 04:58:31;;;;;;;19.70;9.15;;;17.10;99.90;;;;;;5033665;28;20030;-75
2023/05/28 05:00:58;;;;;;;19.30;9.35;;;17.10;99.90;;;;;;5033036;28;20398;-75
2023/05/28 05:03:25;;;;;;;16.05;8.05;;;17.10;99.90;;;;;;5032780;28;20025;-74
2023/05/28 05:05:51;;;;;;;18.42;8.52;;;17.10;99.90;;;;;;5033576;28;20128;-75
2023/05/28 05:08:17;;;;;;;16.42;8.75;;;17.20;99.90;;;;;;5032020;28;20033;-75
2023/05/28 05:10:44;;;;;;;20.00;9.65;;;17.20;99.90;;;;;;5015678;28;20050;-74
2023/05/28 05:13:10;;;;;;;17.20;8.77;;;17.30;99.90;;;;;;5033428;28;20025;-75
2023/05/28 05:15:36;;;;;;;17.63;8.73;;;17.30;99.90;;;;;;5032885;28;20033;-75
2023/05/28 05:18:02;;;;;;;19.88;8.45;;;17.40;99.90;;;;;;5033672;28;20032;-75
2023/05/28 05:20:29;;;;;;;14.82;8.02;;;17.50;99.90;;;;;;5032077;28;20038;-75
2023/05/28 05:22:56;;;;;;;15.95;7.95;;;17.60;99.90;;;;;;5033526;28;20025;-75
2023/05/28 05:25:22;;;;;;;17.00;8.25;;;17.70;99.90;;;;;;5031865;28;20052;-75
2023/05/28 05:27:52;;;;;;;21.85;9.15;;;17.70;99.90;;;;;;5031826;28;20036;-76
2023/05/28 05:30:18;;;;;;;18.75;9.25;;;17.80;99.90;;;;;;5031345;28;20041;-74
2023/05/28 05:32:44;;;;;;;23.02;9.27;;;18.00;99.90;;;;;;5032103;28;20033;-75
2023/05/28 05:35:11;;;;;;;14.77;8.75;;;18.10;99.90;;;;;;5015245;28;20038;-75
2023/05/28 05:37:37;;;;;;;17.13;8.38;;;18.10;99.90;;;;;;5027727;28;20042;-75
2023/05/28 05:40:08;;;;;;;19.35;8.65;;;18.10;99.90;;;;;;5013519;28;20041;-75
2023/05/28 05:42:34;;;;;;;20.10;8.70;;;18.10;99.90;;;;;;5032670;28;20028;-75
2023/05/28 05:45:00;;;;;;;17.70;8.77;;;18.10;99.90;;;;;;5033019;28;20482;-75
2023/05/28 05:47:27;;;;;;;16.02;8.52;;;18.20;99.90;;;;;;5031827;28;20048;-75
2023/05/28 05:49:53;;;;;;;19.63;8.68;;;18.30;99.90;;;;;;5047946;28;20505;-76
2023/05/28 05:52:19;;;;;;;15.80;8.50;;;18.40;99.90;;;;;;5032740;28;20030;-75
2023/05/28 05:54:45;;;;;;;18.05;9.00;;;18.60;99.90;;;;;;5031757;28;20052;-75
2023/05/28 05:57:11;;;;;;;17.67;7.90;;;18.60;99.90;;;;;;5031025;28;20042;-76
2023/05/28 05:59:37;;;;;;;12.25;7.53;;;18.80;99.90;;;;;;5032789;28;20386;-76
2023/05/28 06:02:04;;;;;;;13.48;7.25;;;18.80;99.90;;;;;;5030948;28;20048;-75
2023/05/28 06:04:31;;;;;;;12.20;6.88;;;18.70;99.90;;;;;;5031546;28;20036;-76
2023/05/28 06:06:58;;;;;;;18.65;8.55;;;18.80;99.90;;;;;;5032383;28;20026;-76
2023/05/28 06:09:24;;;;;;;16.58;7.70;;;18.90;99.90;;;;;;5031354;28;20390;-75
2023/05/28 06:11:50;;;;;;;17.65;7.95;;;18.90;99.90;;;;;;5030839;28;20041;-75
2023/05/28 06:14:16;;;;;;;19.58;7.75;;;18.80;99.90;;;;;;5031372;28;20025;-75
2023/05/28 06:16:42;;;;;;;13.10;7.55;;;19.00;99.90;;;;;;5030688;28;20490;-75
2023/05/28 06:19:08;;;;;;;21.45;9.35;;;19.00;99.90;;;;;;5031258;28;20036;-76
2023/05/28 06:21:36;;;;;;;15.40;7.82;;;19.10;99.90;;;;;;5031007;28;20471;-75
2023/05/28 06:24:03;;;;;;;17.30;8.50;;;19.20;99.90;;;;;;5031167;28;20025;-75
2023/05/28 06:26:29;;;;;;;15.90;7.47;;;19.40;99.90;;;;;;5013984;28;20041;-76
2023/05/28 06:28:55;;;;;;;15.38;8.20;;;19.40;99.90;;;;;;5032361;28;20018;-75
2023/05/28 06:31:22;;;;;;;14.68;8.15;;;19.40;99.90;;;;;;5030365;28;20052;-76
2023/05/28 06:33:48;;;;;;;17.80;9.00;;;19.50;99.90;;;;;;5032430;28;20025;-76
2023/05/28 06:36:15;;;;;;;20.73;7.80;;;19.70;99.90;;;;;;5030871;28;20462;-76
2023/05/28 06:38:41;;;;;;;20.85;8.50;;;19.70;99.90;;;;;;5031174;28;20029;-75
2023/05/28 06:41:08;;;;;;;17.65;8.18;;;19.90;99.90;;;;;;5046658;28;20042;-76
2023/05/28 06:43:34;;;;;;;19.35;7.93;;;19.90;99.90;;;;;;5031092;28;20037;-75
2023/05/28 06:46:00;;;;;;;15.63;7.45;;;20.00;99.90;;;;;;5030050;28;20434;-75
2023/05/28 06:48:26;;;;;;;14.18;7.80;;;20.00;99.90;;;;;;5045814;28;20595;-75
2023/05/28 06:50:52;;;;;;;15.10;8.80;;;20.00;99.90;;;;;;5050113;28;20036;-77
2023/05/28 06:53:18;;;;;;;18.08;8.77;;;20.30;99.90;;;;;;5036386;28;20462;-76
2023/05/28 06:55:44;;;;;;;13.38;7.97;;;20.40;99.90;;;;;;5035576;28;20041;-75
2023/05/28 06:58:10;;;;;;;17.25;8.63;;;20.50;99.90;;;;;;5034826;28;20391;-76
2023/05/28 07:00:36;;;;;;;11.32;7.90;;;20.40;99.90;;;;;;5034293;28;20040;-76
2023/05/28 07:03:02;;;;;;;14.40;8.40;;;20.50;99.90;;;;;;5035018;28;20366;-75
2023/05/28 07:05:29;;;;;;;17.73;8.10;;;20.40;99.90;;;;;;5034421;28;20040;-75
2023/05/28 07:07:55;;;;;;;14.57;8.35;;;20.40;99.90;;;;;;5035114;28;20351;-75
2023/05/28 07:10:21;;;;;;;18.65;8.55;;;20.30;99.90;;;;;;5035416;28;20035;-75
2023/05/28 07:12:47;;;;;;;14.30;7.82;;;20.50;99.90;;;;;;5034600;28;20038;-75
2023/05/28 07:15:15;;;;;;;17.30;8.43;;;20.60;99.90;;;;;;5035244;28;20033;-76
2023/05/28 07:17:41;;;;;;;15.77;7.75;;;20.70;99.90;;;;;;5035836;28;20028;-75
2023/05/28 07:20:08;;;;;;;13.25;7.95;;;20.70;99.90;;;;;;5035747;28;20029;-76
2023/05/28 07:22:34;;;;;;;16.00;7.20;;;20.90;99.90;;;;;;5033862;28;20041;-76
2023/05/28 07:25:00;;;;;;;14.88;7.75;;;20.90;99.90;;;;;;5034167;28;20041;-76
2023/05/28 07:27:26;;;;;;;15.20;8.13;;;21.00;99.90;;;;;;5034077;28;20036;-77
2023/05/28 07:29:53;;;;;;;16.52;8.10;;;21.00;99.90;;;;;;5035866;28;20029;-77
2023/05/28 07:32:19;;;;;;;15.45;7.88;;;21.20;99.90;;;;;;5033759;28;20030;-75
2023/05/28 07:34:45;;;;;;;14.75;7.45;;;21.20;99.90;;;;;;5035615;28;20044;-75
2023/05/28 07:37:11;;;;;;;13.63;6.95;;;21.30;99.90;;;;;;5033593;28;20041;-76
2023/05/28 07:39:37;;;;;;;13.35;7.18;;;21.30;99.90;;;;;;5035489;28;20029;-75
2023/05/28 07:42:03;;;;;;;12.48;6.82;;;21.40;99.90;;;;;;5050521;28;20034;-75
2023/05/28 07:44:29;;;;;;;15.45;7.07;;;21.30;99.90;;;;;;5035266;28;20774;-75
2023/05/28 07:46:55;;;;;;;16.33;7.18;;;21.50;99.90;;;;;;5052219;28;20053;-75
2023/05/28 07:49:21;;;;;;;13.98;7.18;;;21.80;99.90;;;;;;5053825;28;20044;-76
2023/05/28 07:51:48;;;;;;;15.40;7.35;;;21.90;99.90;;;;;;5039860;28;20038;-74
2023/05/28 07:54:14;;;;;;;14.70;7.15;;;21.90;99.90;;;;;;5035201;28;20026;-76
2023/05/28 07:56:41;;;;;;;14.20;7.18;;;22.00;99.90;;;;;;5033784;28;20394;-75
2023/05/28 07:59:07;;;;;;;11.73;7.40;;;22.00;99.90;;;;;;5033838;28;20021;-75
2023/05/28 08:01:35;;;;;;;13.82;7.55;;;22.00;99.90;;;;;;5032345;28;20399;-76
2023/05/28 08:04:01;;;;;;;13.13;6.93;;;22.10;99.90;;;;;;5034049;28;20028;-76
2023/05/28 08:06:27;;;;;;;14.65;7.40;;;22.30;99.90;;;;;;5033270;28;20052;-76
2023/05/28 08:08:53;;;;;;;17.50;7.88;;;22.40;99.90;;;;;;5033779;28;20033;-75
2023/05/28 08:11:20;;;;;;;16.90;7.72;;;22.50;99.90;;;;;;5033480;28;20029;-75
2023/05/28 08:13:46;;;;;;;15.70;8.38;;;22.50;99.90;;;;;;5033136;28;20050;-76
2023/05/28 08:16:12;;;;;;;12.40;7.50;;;22.40;99.90;;;;;;5034182;28;20033;-76
2023/05/28 08:18:39;;;;;;;15.27;8.23;;;22.40;99.90;;;;;;5033702;28;20030;-75
2023/05/28 08:21:06;;;;;;;14.93;8.50;;;22.40;99.90;;;;;;5032805;28;20382;-76
2023/05/28 08:23:34;;;;;;;16.27;8.05;;;22.60;99.90;;;;;;5033611;28;20374;-75
2023/05/28 08:26:01;;;;;;;14.48;7.97;;;22.70;99.90;;;;;;5033138;28;20037;-75
2023/05/28 08:28:28;;;;;;;14.05;8.45;;;22.70;99.90;;;;;;5016789;28;20041;-75
2023/05/28 08:30:54;;;;;;;12.02;7.82;;;22.90;99.90;;;;;;5033733;28;20047;-75
2023/05/28 08:33:20;;;;;;;13.88;8.70;;;23.00;99.90;;;;;;5034521;28;20021;-75
2023/05/28 08:35:46;;;;;;;13.15;8.50;;;23.10;99.90;;;;;;5032562;28;20048;-75
2023/05/28 08:38:12;;;;;;;14.75;8.88;;;23.10;99.90;;;;;;5034329;28;20021;-76
2023/05/28 08:40:43;;;;;;;13.55;8.35;;;23.10;99.90;;;;;;5032974;28;20034;-76
2023/05/28 08:43:09;;;;;;;14.48;7.85;;;23.20;99.90;;;;;;5033523;28;20018;-76
2023/05/28 08:45:36;;;;;;;15.23;8.57;;;23.10;99.90;;;;;;5033467;28;20042;-75
2023/05/28 08:48:04;;;;;;;15.77;8.48;;;23.20;99.90;;;;;;5044194;28;20049;-75
2023/05/28 08:50:30;;;;;;;14.23;8.40;;;23.20;99.90;;;;;;5049392;28;20040;-75
2023/05/28 08:52:57;;;;;;;12.88;7.38;;;23.20;99.90;;;;;;5033025;28;20029;-75
2023/05/28 08:55:23;;;;;;;13.15;8.38;;;23.50;99.90;;;;;;5032688;28;20470;-74
2023/05/28 08:57:49;;;;;;;11.95;8.90;;;23.80;99.90;;;;;;5032705;28;20033;-76
2023/05/28 09:00:15;;;;;;;14.50;9.30;;;24.00;99.90;;;;;;5032085;28;20029;-75
2023/05/28 09:02:41;;;;;;;12.82;8.82;;;24.20;99.90;;;;;;5032910;28;20026;-75
2023/05/28 09:05:07;;;;;;;16.60;9.05;;;24.30;99.90;;;;;;5033518;28;20417;-75
2023/05/28 09:07:34;;;;;;;14.80;7.82;;;24.50;99.90;;;;;;5032383;28;20765;-76
2023/05/28 09:10:00;;;;;;;14.57;9.25;;;24.50;99.90;;;;;;5032612;28;20029;-75
2023/05/28 09:12:26;;;;;;;11.70;8.52;;;24.20;99.90;;;;;;5031324;28;20041;-75
2023/05/28 09:14:53;;;;;;;13.30;8.55;;;24.30;99.90;;;;;;5033663;28;20037;-75
2023/05/28 09:17:38;;;;;;;10.80;8.32;;;24.40;99.90;;;;;;5048331;28;20029;-75
2023/05/28 09:20:12;;;;;;;13.63;8.90;;;24.60;99.90;;;;;;5032084;28;20036;-76
2023/05/28 09:22:38;;;;;;;15.63;8.68;;;24.80;99.90;;;;;;5015912;28;20148;-75
2023/05/28 09:25:08;;;;;;;16.13;9.20;;;24.80;99.90;;;;;;5032204;28;20052;-75
2023/05/28 09:27:35;;;;;;;16.08;8.48;;;25.00;99.90;;;;;;5032009;28;20029;-75
2023/05/28 09:30:08;;;;;;;14.35;9.30;;;25.10;99.90;;;;;;5049002;28;20021;-75
2023/05/28 09:32:37;;;;;;;11.63;8.98;;;25.20;99.90;;;;;;5051692;28;20044;-75
2023/05/28 09:35:07;;;;;;;13.48;9.25;;;25.30;99.90;;;;;;5031668;28;20037;-75
2023/05/28 09:37:35;;;;;;;14.73;9.85;;;25.40;99.90;;;;;;5064792;28;20041;-75
2023/05/28 09:40:08;;;;;;;15.48;9.35;;;25.50;99.90;;;;;;5065076;28;20036;-75
2023/05/28 09:42:42;;;;;;;11.65;9.05;;;25.50;99.90;;;;;;5048114;28;20042;-76
2023/05/28 09:45:09;;;;;;;12.65;9.48;;;25.50;99.90;;;;;;5031423;28;20056;-75
2023/05/28 09:47:44;;;;;;;13.75;9.63;;;25.70;99.90;;;;;;5031479;28;20056;-75
2023/05/28 09:50:11;;;;;;;13.80;9.45;;;25.60;99.90;;;;;;5015609;28;20029;-76
2023/05/28 09:52:42;;;;;;;16.27;9.35;;;25.50;99.90;;;;;;5031734;28;20037;-76
2023/05/28 09:55:08;;;;;;;14.52;8.80;;;25.50;99.60;;;;;;5032252;28;20033;-76
2023/05/28 09:57:35;;;;;;;12.60;9.30;;;25.70;99.50;;;;;;5031645;28;20038;-75
2023/05/28 10:00:11;;;;;;;11.93;9.98;;;25.80;98.80;;;;;;5048214;28;20026;-75
2023/05/28 10:02:50;;;;;;;10.23;8.48;;;25.80;99.00;;;;;;5060938;28;20048;-75
2023/05/28 10:05:16;;;;;;;11.32;8.80;;;25.80;98.70;;;;;;5046711;28;20033;-75
2023/05/28 10:07:44;;;;;;;12.15;9.32;;;25.80;98.80;;;;;;5031644;28;20033;-75
2023/05/28 10:10:14;;;;;;;10.65;9.30;;;25.90;98.40;;;;;;5031229;28;20021;-76
2023/05/28 10:12:40;;;;;;;14.07;9.30;;;25.80;98.90;;;;;;5031611;28;20021;-75
2023/05/28 10:15:07;;;;;;;14.55;10.30;;;25.90;98.70;;;;;;5030965;28;20025;-75
2023/05/28 10:17:33;;;;;;;13.27;10.65;;;26.00;97.80;;;;;;5031916;28;20049;-75
2023/05/28 10:20:00;;;;;;;13.48;10.15;;;26.10;97.70;;;;;;5015140;28;20021;-75
2023/05/28 10:22:26;;;;;;;14.02;10.75;;;26.30;98.10;;;;;;5014860;28;20045;-75
2023/05/28 10:24:52;;;;;;;11.65;10.10;;;26.20;97.20;;;;;;5030899;28;20386;-75
2023/05/28 10:27:18;;;;;;;11.75;10.02;;;26.30;97.40;;;;;;5031123;28;20041;-75
2023/05/28 10:29:48;;;;;;;13.57;9.82;;;26.40;97.40;;;;;;5032484;28;20033;-75
2023/05/28 10:32:15;;;;;;;12.57;9.77;;;26.50;97.10;;;;;;5029858;28;20038;-75
2023/05/28 10:34:41;;;;;;;15.13;13.82;;;26.30;96.80;;;;;;5032586;28;20033;-75
2023/05/28 10:37:08;;;;;;;15.13;10.77;;;26.40;97.40;;;;;;5030776;28;20034;-75
2023/05/28 10:39:41;;;;;;;14.43;10.45;;;26.50;96.90;;;;;;5047671;28;20379;-74
2023/05/28 10:42:08;;;;;;;12.85;10.10;;;26.60;96.60;;;;;;5030695;28;20038;-75
2023/05/28 10:44:59;;;;;;;11.68;9.35;;;26.80;95.80;;;;;;5012562;28;20463;-75
2023/05/28 10:47:50;;;;;;;15.63;10.60;;;26.70;96.10;;;;;;5029611;28;20041;-75
2023/05/28 10:50:17;;;;;;;11.52;10.43;;;26.80;96.10;;;;;;5030728;28;20053;-75
2023/05/28 10:53:02;;;;;;;11.43;10.00;;;26.90;95.20;;;;;;5014712;28;20033;-76
2023/05/28 10:55:28;;;;;;;12.98;11.43;;;26.90;95.20;;;;;;5030849;28;20097;-75
2023/05/28 10:57:54;;;;;;;12.98;10.77;;;27.00;95.20;;;;;;5014635;28;20025;-74
2023/05/28 11:00:24;;;;;;;12.73;11.20;;;27.10;94.90;;;;;;5013416;28;20037;-75
2023/05/28 11:02:54;;;;;;;12.48;11.10;;;27.20;94.50;;;;;;5030879;28;20021;-75
2023/05/28 11:05:24;;;;;;;11.90;10.77;;;27.20;94.40;;;;;;5030801;28;20041;-75
2023/05/28 11:07:50;;;;;;;;;;;27.40;94.10;;;;;;5031280;28;20478;-75
2023/05/28 11:10:17;;;;;;;11.57;10.43;;;27.50;93.90;;;;;;5031709;28;19905;-74
2023/05/28 11:12:43;;;;;;;12.10;10.75;;;27.40;93.40;;;;;;5031059;28;20028;-74
2023/05/28 11:15:11;;;;;;;11.68;10.55;;;27.20;93.60;;;;;;5029604;28;20037;-75
2023/05/28 11:17:38;;;;;;;15.77;14.15;;;27.20;94.60;;;;;;4994645;28;20030;-75
2023/05/28 11:20:05;;;;;;;14.13;11.98;;;27.40;94.20;;;;;;5012047;28;20391;-75
2023/05/28 11:22:35;;;;;;;14.18;12.65;;;27.50;93.60;;;;;;5029499;28;20038;-75
2023/05/28 11:25:08;;;;;;;13.47;11.80;;;27.60;93.80;;;;;;5047273;28;20037;-75
2023/05/28 11:27:35;;;;;;;12.07;10.77;;;27.60;93.00;;;;;;5046801;28;20057;-75
2023/05/28 11:30:06;;;;;;;12.70;11.40;;;27.40;92.60;;;;;;5046754;28;20029;-75
2023/05/28 11:32:33;;;;;;;13.02;11.43;;;27.30;92.60;;;;;;5042129;28;20033;-75
2023/05/28 11:34:59;;;;;;;14.05;8.80;;;27.30;93.20;;;;;;5047169;28;20371;-74
2023/05/28 11:37:27;;;;;;;12.52;11.20;;;27.30;92.90;;;;;;5016774;28;20042;-74
2023/05/28 11:39:54;;;;;;;11.60;10.40;;;27.40;92.90;;;;;;5018169;28;20037;-75
2023/05/28 11:42:20;;;;;;;14.68;11.98;;;27.40;92.20;;;;;;5033959;28;20036;-75
2023/05/28 11:44:46;;;;;;;13.43;11.27;;;27.50;92.30;;;;;;5035060;28;20052;-75
2023/05/28 11:47:13;;;;;;;12.80;11.38;;;27.50;91.90;;;;;;5021419;28;20405;-75
2023/05/28 11:49:42;;;;;;;11.38;10.20;;;27.60;91.80;;;;;;5055156;28;20029;-75
2023/05/28 11:52:11;;;;;;;14.38;12.05;;;27.70;92.30;;;;;;5037330;28;20032;-75
2023/05/28 11:54:41;;;;;;;12.13;10.80;;;27.70;92.80;;;;;;5034138;28;20032;-75
2023/05/28 11:57:08;;;;;;;12.80;11.50;;;27.50;92.10;;;;;;5017608;28;20033;-75
2023/05/28 11:59:34;;;;;;;14.80;12.10;;;27.50;92.40;;;;;;5034816;28;20402;-75
2023/05/28 12:02:11;;;;;;;12.45;11.25;;;27.50;92.50;;;;;;5033229;28;20030;-75
2023/05/28 12:04:37;;;;;;;12.73;11.65;;;27.60;92.00;;;;;;5017708;28;20462;-75
2023/05/28 12:07:03;;;;;;;12.70;11.60;;;27.70;91.50;;;;;;5016671;28;20072;-75
2023/05/28 12:09:29;;;;;;;17.63;11.90;;;27.80;91.50;;;;;;5034793;28;20562;-76
2023/05/28 12:12:23;;;;;;;11.68;9.77;;;28.00;91.50;;;;;;5033526;28;20041;-75
2023/05/28 12:14:50;;;;;;;11.93;10.82;;;27.80;91.70;;;;;;5030886;28;20044;-75
2023/05/28 12:17:16;;;;;;;14.90;11.90;;;27.60;91.70;;;;;;5034084;28;20490;-75
2023/05/28 12:19:42;;;;;;;12.40;10.95;;;27.70;91.80;;;;;;5017096;28;20414;-74
2023/05/28 12:22:15;;;;;;;12.52;11.32;;;27.80;91.70;;;;;;5034451;28;20041;-75
2023/05/28 12:24:50;;;;;;;11.80;10.60;;;27.50;91.50;;;;;;5033578;28;20022;-75
2023/05/28 12:27:18;;;;;;;12.93;11.57;;;27.40;91.40;;;;;;5032804;28;20037;-74
2023/05/28 12:29:44;;;;;;;12.65;11.43;;;27.50;91.50;;;;;;5034548;28;20030;-75
2023/05/28 12:32:10;;;;;;;12.93;11.63;;;27.60;91.20;;;;;;5032409;28;20042;-75
2023/05/28 12:34:36;;;;;;;13.20;11.98;;;27.90;91.10;;;;;;5034478;28;20026;-75